createdAt,value
2022-11-12T00:00:11.547Z,74.43
2022-11-12T00:02:13.141Z,73.71
2022-11-12T00:04:14.903Z,72.78
2022-11-12T00:06:16.471Z,71.49
2022-11-12T00:08:18.558Z,71.02
2022-11-12T00:10:20.283Z,71.04
2022-11-12T00:12:21.874Z,70.59
2022-11-12T00:14:23.468Z,69.83
2022-11-12T00:16:25.145Z,69.37
2022-11-12T00:18:27.145Z,69.93
2022-11-12T00:20:29.164Z,69.83
2022-11-12T00:22:30.802Z,70.29
2022-11-12T00:24:32.467Z,71.56
2022-11-12T00:26:34.236Z,71.03
2022-11-12T00:28:38.145Z,71.42
2022-11-12T00:30:40.799Z,71.10
2022-11-12T00:32:42.578Z,71.54
2022-11-12T00:34:44.320Z,72.82
2022-11-12T00:36:45.917Z,72.92
2022-11-12T00:38:47.573Z,72.63
2022-11-12T00:40:49.396Z,72.26
2022-11-12T00:42:52.403Z,72.60
2022-11-12T00:44:54.125Z,71.44
2022-11-12T00:46:56.892Z,72.30
2022-11-12T00:48:58.536Z,72.12
2022-11-12T00:51:04.715Z,72.22
2022-11-12T00:53:06.348Z,71.74
2022-11-12T00:55:08.373Z,71.22
2022-11-12T00:57:10.107Z,70.80
2022-11-12T00:59:12.001Z,70.31
2022-11-12T01:01:14.744Z,70.34
2022-11-12T01:03:16.482Z,69.72
2022-11-12T01:05:18.994Z,68.96
2022-11-12T01:07:20.710Z,69.48
2022-11-12T01:09:22.604Z,69.16
2022-11-12T01:11:28.632Z,69.61
2022-11-12T01:13:30.279Z,69.61
2022-11-12T01:15:32.093Z,69.28
2022-11-12T01:17:34.130Z,68.96
2022-11-12T01:19:36.529Z,68.82
2022-11-12T01:21:41.377Z,68.91
2022-11-12T01:23:43.485Z,70.04
2022-11-12T01:25:45.060Z,70.13
2022-11-12T01:27:47.019Z,69.85
2022-11-12T01:29:48.614Z,70.07
2022-11-12T01:31:50.257Z,69.88
2022-11-12T01:33:57.844Z,69.50
2022-11-12T01:36:00.093Z,69.72
2022-11-12T01:38:01.725Z,69.16
2022-11-12T01:40:03.595Z,69.10
2022-11-12T01:42:05.396Z,69.38
2022-11-12T01:44:21.727Z,69.08
2022-11-12T01:46:28.033Z,69.18
2022-11-12T01:48:32.873Z,69.21
2022-11-12T01:50:36.472Z,68.96
2022-11-12T01:52:42.711Z,68.83
2022-11-12T01:54:47.000Z,68.27
2022-11-12T01:56:50.348Z,68.44
2022-11-12T01:59:01.901Z,68.90
2022-11-12T02:01:03.732Z,68.52
2022-11-12T02:03:15.316Z,68.40
2022-11-12T02:05:18.324Z,68.33
2022-11-12T02:07:22.432Z,67.99
2022-11-12T02:09:24.280Z,68.24
2022-11-12T02:11:25.872Z,68.17
2022-11-12T02:13:45.854Z,68.18
2022-11-12T02:15:47.471Z,67.81
2022-11-12T02:17:49.194Z,67.61
2022-11-12T02:19:52.729Z,68.01
2022-11-12T02:21:54.321Z,67.95
2022-11-12T02:24:06.648Z,68.64
2022-11-12T02:26:08.483Z,69.16
2022-11-12T02:28:10.491Z,69.67
2022-11-12T02:30:12.635Z,69.50
2022-11-12T02:32:14.398Z,69.49
2022-11-12T02:34:15.989Z,68.29
2022-11-12T02:36:17.772Z,69.13
2022-11-12T02:38:19.547Z,69.08
2022-11-12T02:40:21.548Z,68.65
2022-11-12T02:42:23.207Z,68.86
2022-11-12T02:44:25.125Z,69.35
2022-11-12T02:46:26.744Z,68.75
2022-11-12T02:48:28.519Z,68.33
2022-11-12T02:50:30.564Z,68.36
2022-11-12T02:52:32.715Z,67.85
2022-11-12T02:54:34.303Z,67.35
2022-11-12T02:56:35.992Z,66.50
2022-11-12T02:58:37.594Z,67.39
2022-11-12T03:00:39.268Z,67.08
2022-11-12T03:02:43.173Z,66.69
2022-11-12T03:04:49.268Z,66.68
2022-11-12T03:06:52.461Z,66.30
2022-11-12T03:08:54.086Z,66.19
2022-11-12T03:10:55.783Z,66.45
2022-11-12T03:12:58.820Z,65.57
2022-11-12T03:15:00.417Z,65.31
2022-11-12T03:17:02.035Z,65.66
2022-11-12T03:19:03.905Z,67.38
2022-11-12T03:21:05.906Z,68.04
2022-11-12T03:23:09.810Z,68.53
2022-11-12T03:25:11.298Z,68.13
2022-11-12T03:27:12.972Z,68.43
2022-11-12T03:29:14.838Z,68.09
2022-11-12T03:31:16.483Z,67.92
2022-11-12T03:33:18.191Z,67.30
2022-11-12T03:35:20.174Z,67.48
2022-11-12T03:37:21.750Z,67.03
2022-11-12T03:39:23.340Z,67.02
2022-11-12T03:41:25.092Z,66.86
2022-11-12T03:43:26.764Z,66.54
2022-11-12T03:45:28.646Z,66.97
2022-11-12T03:47:30.325Z,67.31
2022-11-12T03:49:32.129Z,67.46
2022-11-12T03:51:33.790Z,67.84
2022-11-12T03:53:35.598Z,68.11
2022-11-12T03:55:37.445Z,68.08
2022-11-12T03:57:39.356Z,67.87
2022-11-12T03:59:41.248Z,67.09
2022-11-12T04:01:42.907Z,66.29
2022-11-12T04:03:44.537Z,65.93
2022-11-12T04:06:04.843Z,66.24
2022-11-12T04:08:29.239Z,66.41
2022-11-12T04:10:31.220Z,66.25
2022-11-12T04:12:51.425Z,66.21
2022-11-12T04:14:53.124Z,66.16
2022-11-12T04:17:13.430Z,65.52
2022-11-12T04:19:33.994Z,65.36
2022-11-12T04:21:59.136Z,65.42
2022-11-12T04:24:00.882Z,65.18
2022-11-12T04:26:21.200Z,64.43
2022-11-12T04:28:23.006Z,65.15
2022-11-12T04:30:24.843Z,65.32
2022-11-12T04:32:26.619Z,66.05
2022-11-12T04:34:31.045Z,65.84
2022-11-12T04:36:32.830Z,65.30
2022-11-12T04:38:34.509Z,66.59
2022-11-12T04:40:54.627Z,66.59
2022-11-12T04:43:15.362Z,67.11
2022-11-12T04:45:17.142Z,66.68
2022-11-12T04:47:18.736Z,66.98
2022-11-12T04:49:20.612Z,67.05
2022-11-12T04:51:41.049Z,67.62
2022-11-12T04:53:42.629Z,67.41
2022-11-12T04:55:44.328Z,67.92
2022-11-12T04:58:00.206Z,68.17
2022-11-12T05:00:02.675Z,67.57
2022-11-12T05:02:04.361Z,67.59
2022-11-12T05:04:06.004Z,67.12
2022-11-12T05:06:26.541Z,65.59
2022-11-12T05:08:28.414Z,65.87
2022-11-12T05:10:31.082Z,65.48
2022-11-12T05:12:32.874Z,63.97
2022-11-12T05:14:34.540Z,63.36
2022-11-12T05:16:37.044Z,64.10
2022-11-12T05:18:38.672Z,63.77
2022-11-12T05:20:40.322Z,63.59
2022-11-12T05:22:47.707Z,64.26
2022-11-12T05:24:52.272Z,63.64
2022-11-12T05:26:54.430Z,63.23
2022-11-12T05:28:56.010Z,63.56
2022-11-12T05:30:57.739Z,63.27
2022-11-12T05:32:59.396Z,62.98
2022-11-12T05:35:01.021Z,62.42
2022-11-12T05:37:04.368Z,62.42
2022-11-12T05:39:05.966Z,62.43
2022-11-12T05:41:07.530Z,62.51
2022-11-12T05:43:09.188Z,62.98
2022-11-12T05:45:10.890Z,62.48
2022-11-12T05:47:12.445Z,62.72
2022-11-12T05:49:14.732Z,61.58
2022-11-12T05:51:16.665Z,62.00
2022-11-12T05:53:18.286Z,62.11
2022-11-12T05:55:19.948Z,61.94
2022-11-12T05:57:21.591Z,61.46
2022-11-12T05:59:23.383Z,62.09
2022-11-12T06:01:25.224Z,60.95
2022-11-12T06:03:27.133Z,61.63
2022-11-12T06:05:28.684Z,61.31
2022-11-12T06:07:30.419Z,61.50
2022-11-12T06:09:32.108Z,61.68
2022-11-12T06:11:33.869Z,60.83
2022-11-12T06:13:35.788Z,61.33
2022-11-12T06:15:39.440Z,60.84
2022-11-12T06:17:41.796Z,60.82
2022-11-12T06:19:43.471Z,60.75
2022-11-12T06:22:14.586Z,60.88
2022-11-12T06:24:16.231Z,60.23
2022-11-12T06:26:19.360Z,60.53
2022-11-12T06:28:24.518Z,60.18
2022-11-12T06:30:26.325Z,60.46
2022-11-12T06:32:33.456Z,61.06
2022-11-12T06:34:35.056Z,60.99
2022-11-12T06:36:39.750Z,60.48
2022-11-12T06:38:41.985Z,60.34
2022-11-12T06:40:43.600Z,59.31
2022-11-12T06:42:45.178Z,59.37
2022-11-12T06:44:46.914Z,58.91
2022-11-12T06:46:48.610Z,58.07
2022-11-12T06:48:50.226Z,58.37
2022-11-12T06:50:51.929Z,58.55
2022-11-12T06:52:58.416Z,59.70
2022-11-12T06:55:00.097Z,60.10
2022-11-12T06:57:03.443Z,60.23
2022-11-12T06:59:07.491Z,59.76
2022-11-12T07:01:12.757Z,60.57
2022-11-12T07:03:15.128Z,60.39
2022-11-12T07:05:18.197Z,60.24
2022-11-12T07:07:20.049Z,60.78
2022-11-12T07:09:21.666Z,60.46
2022-11-12T07:11:23.343Z,59.93
2022-11-12T07:13:25.325Z,59.53
2022-11-12T07:15:26.980Z,59.78
2022-11-12T07:17:28.618Z,59.29
2022-11-12T07:19:30.505Z,58.77
2022-11-12T07:21:32.124Z,58.45
2022-11-12T07:23:35.641Z,59.21
2022-11-12T07:25:37.331Z,58.68
2022-11-12T07:27:38.960Z,58.27
2022-11-12T07:29:49.015Z,58.32
2022-11-12T07:31:50.729Z,58.21
2022-11-12T07:33:52.406Z,58.34
2022-11-12T07:36:04.431Z,57.72
2022-11-12T07:38:06.060Z,57.60
2022-11-12T07:40:08.212Z,57.19
2022-11-12T07:42:10.077Z,57.38
2022-11-12T07:44:11.696Z,57.07
2022-11-12T07:46:15.995Z,57.22
2022-11-12T07:48:17.673Z,56.87
2022-11-12T07:50:19.244Z,56.59
2022-11-12T07:52:21.571Z,55.87
2022-11-12T07:54:23.205Z,55.41
2022-11-12T07:56:26.467Z,55.76
2022-11-12T07:58:31.099Z,55.81
2022-11-12T08:00:32.828Z,55.70
2022-11-12T08:02:34.806Z,55.77
2022-11-12T08:04:36.525Z,55.58
2022-11-12T08:06:38.612Z,55.53
2022-11-12T08:08:40.408Z,55.25
2022-11-12T08:10:42.323Z,55.63
2022-11-12T08:12:43.959Z,55.61
2022-11-12T08:14:45.596Z,56.12
2022-11-12T08:16:47.244Z,57.00
2022-11-12T08:18:48.881Z,57.69
2022-11-12T08:20:50.683Z,57.25
2022-11-12T08:22:52.536Z,56.85
2022-11-12T08:24:54.153Z,57.09
2022-11-12T08:26:55.845Z,57.23
2022-11-12T08:28:57.477Z,57.83
2022-11-12T08:31:13.445Z,57.24
2022-11-12T08:33:15.088Z,57.10
2022-11-12T08:35:16.890Z,57.18
2022-11-12T08:37:18.634Z,56.40
2022-11-12T08:39:20.235Z,55.96
2022-11-12T08:41:21.911Z,56.37
2022-11-12T08:43:23.575Z,55.47
2022-11-12T08:45:25.392Z,55.75
2022-11-12T08:47:27.075Z,55.71
2022-11-12T08:49:29.383Z,55.67
2022-11-12T08:51:31.067Z,55.85
2022-11-12T08:53:33.111Z,55.54
2022-11-12T08:55:35.680Z,54.75
2022-11-12T08:57:44.180Z,55.02
2022-11-12T08:59:45.826Z,55.41
2022-11-12T09:01:47.817Z,54.76
2022-11-12T09:03:49.933Z,54.76
2022-11-12T09:05:52.301Z,54.24
2022-11-12T09:08:01.021Z,53.37
2022-11-12T09:10:02.887Z,53.63
2022-11-12T09:12:12.393Z,53.49
2022-11-12T09:14:16.825Z,53.64
2022-11-12T09:16:18.655Z,53.57
2022-11-12T09:18:20.271Z,52.81
2022-11-12T09:20:21.852Z,53.01
2022-11-12T09:22:23.655Z,53.82
2022-11-12T09:24:25.353Z,53.87
2022-11-12T09:26:27.056Z,53.85
2022-11-12T09:28:29.170Z,53.65
2022-11-12T09:30:30.915Z,53.44
2022-11-12T09:32:32.924Z,53.97
2022-11-12T09:34:34.776Z,53.86
2022-11-12T09:36:39.802Z,53.87
2022-11-12T09:38:41.816Z,54.71
2022-11-12T09:40:52.318Z,54.37
2022-11-12T09:42:54.056Z,53.84
2022-11-12T09:45:22.392Z,54.49
2022-11-12T09:47:28.024Z,54.40
2022-11-12T09:49:34.270Z,54.25
2022-11-12T09:51:43.813Z,54.36
2022-11-12T09:53:54.243Z,54.59
2022-11-12T09:55:56.050Z,54.65
2022-11-12T09:57:57.732Z,54.32
2022-11-12T09:59:59.754Z,54.07
2022-11-12T10:02:33.202Z,53.37
2022-11-12T10:04:42.182Z,53.72
2022-11-12T10:07:06.546Z,52.83
2022-11-12T10:09:20.709Z,53.57
2022-11-12T10:12:05.537Z,52.82
2022-11-12T10:15:21.405Z,52.48
2022-11-12T10:17:40.871Z,52.29
2022-11-12T10:19:48.369Z,52.49
2022-11-12T10:21:49.974Z,53.29
2022-11-12T10:23:53.290Z,53.41
2022-11-12T10:25:58.200Z,53.36
2022-11-12T10:28:04.849Z,53.09
2022-11-12T10:30:10.274Z,53.35
2022-11-12T10:32:14.927Z,52.94
2022-11-12T10:34:21.896Z,53.43
2022-11-12T10:36:33.887Z,53.96
2022-11-12T10:38:36.048Z,53.96
2022-11-12T10:40:40.381Z,53.45
2022-11-12T10:43:17.263Z,54.22
2022-11-12T10:45:23.257Z,54.36
2022-11-12T10:47:33.519Z,54.99
2022-11-12T10:49:35.212Z,55.84
2022-11-12T10:51:38.481Z,55.82
2022-11-12T10:53:40.536Z,55.57
2022-11-12T10:55:59.559Z,55.92
2022-11-12T10:58:10.182Z,56.07
2022-11-12T11:00:20.398Z,56.00
2022-11-12T11:02:22.030Z,55.98
2022-11-12T11:04:34.479Z,56.23
2022-11-12T11:06:36.355Z,56.56
2022-11-12T11:09:13.572Z,56.61
2022-11-12T11:11:24.275Z,56.56
2022-11-12T11:13:28.667Z,56.30
2022-11-12T11:15:30.528Z,55.75
2022-11-12T11:17:32.233Z,55.84
2022-11-12T11:19:37.749Z,55.60
2022-11-12T11:21:51.210Z,55.61
2022-11-12T11:24:35.708Z,55.08
2022-11-12T11:26:54.871Z,55.08
2022-11-12T11:29:34.145Z,55.13
2022-11-12T11:31:58.853Z,55.34
2022-11-12T11:34:12.803Z,55.43
2022-11-12T11:36:48.788Z,55.69
2022-11-12T11:39:17.397Z,56.24
2022-11-12T11:41:44.997Z,55.90
2022-11-12T11:44:13.640Z,57.95
2022-11-12T11:46:50.546Z,56.37
2022-11-12T11:49:16.575Z,55.57
2022-11-12T11:51:38.629Z,55.84
2022-11-12T11:53:57.265Z,55.77
2022-11-12T11:56:21.267Z,55.96
2022-11-12T11:58:44.557Z,55.91
2022-11-12T12:00:54.046Z,55.74
2022-11-12T12:03:08.156Z,55.77
2022-11-12T12:05:21.882Z,56.15
2022-11-12T12:07:35.443Z,56.05
2022-11-12T12:09:49.018Z,55.87
2022-11-12T12:12:15.324Z,55.90
2022-11-12T12:14:30.287Z,55.98
2022-11-12T12:17:11.844Z,55.82
2022-11-12T12:19:37.758Z,55.84
2022-11-12T12:21:41.502Z,56.16
2022-11-12T12:24:02.513Z,55.65
2022-11-12T12:26:10.415Z,55.88
2022-11-12T12:28:14.657Z,55.67
2022-11-12T12:30:25.118Z,55.92
2022-11-12T12:32:36.122Z,57.83
2022-11-12T12:34:42.161Z,58.78
2022-11-12T12:36:44.277Z,61.21
2022-11-12T12:38:55.722Z,61.22
2022-11-12T12:41:27.955Z,60.60
2022-11-12T12:43:36.665Z,60.19
2022-11-12T12:45:46.125Z,59.39
2022-11-12T12:47:48.179Z,59.00
2022-11-12T12:49:51.379Z,59.05
2022-11-12T12:51:55.803Z,59.76
2022-11-12T12:53:57.890Z,60.81
2022-11-12T12:56:04.756Z,60.60
2022-11-12T12:58:19.725Z,61.17
2022-11-12T13:00:33.214Z,61.81
2022-11-12T13:02:38.626Z,60.92
2022-11-12T13:04:50.951Z,60.91
2022-11-12T13:06:53.491Z,61.56
2022-11-12T13:09:15.365Z,61.59
2022-11-12T13:12:02.052Z,62.66
2022-11-12T13:14:35.858Z,62.25
2022-11-12T13:16:49.688Z,61.41
2022-11-12T13:18:51.471Z,62.00
2022-11-12T13:21:14.783Z,61.83
2022-11-12T13:24:05.279Z,61.42
2022-11-12T13:26:44.167Z,61.61
2022-11-12T13:29:23.889Z,61.75
2022-11-12T13:31:28.306Z,62.14
2022-11-12T13:33:31.528Z,62.54
2022-11-12T13:35:36.964Z,63.13
2022-11-12T13:37:44.990Z,63.79
2022-11-12T13:39:46.972Z,64.68
2022-11-12T13:42:15.928Z,63.88
2022-11-12T13:44:18.060Z,64.25
2022-11-12T13:46:24.646Z,64.36
2022-11-12T13:48:47.076Z,64.21
2022-11-12T13:50:54.664Z,64.87
2022-11-12T13:52:56.696Z,65.44
2022-11-12T13:55:07.872Z,65.30
2022-11-12T13:57:24.039Z,65.05
2022-11-12T13:59:26.265Z,65.07
2022-11-12T14:01:28.251Z,64.77
2022-11-12T14:03:43.569Z,65.35
2022-11-12T14:05:48.055Z,65.46
2022-11-12T14:08:14.836Z,65.65
2022-11-12T14:10:45.945Z,65.88
2022-11-12T14:13:09.711Z,65.98
2022-11-12T14:15:33.098Z,66.24
2022-11-12T14:17:56.311Z,66.11
2022-11-12T14:20:36.426Z,66.26
2022-11-12T14:22:42.655Z,66.24
2022-11-12T14:24:46.193Z,65.59
2022-11-12T14:26:47.876Z,65.63
2022-11-12T14:28:55.916Z,65.80
2022-11-12T14:30:58.886Z,66.07
2022-11-12T14:33:08.063Z,65.73
2022-11-12T14:35:29.634Z,65.67
2022-11-12T14:37:42.975Z,65.96
2022-11-12T14:39:45.560Z,65.89
2022-11-12T14:41:49.261Z,66.31
2022-11-12T14:44:07.729Z,66.01
2022-11-12T14:46:27.103Z,66.66
2022-11-12T14:48:30.863Z,66.34
2022-11-12T14:50:37.363Z,66.67
2022-11-12T14:52:43.293Z,66.74
2022-11-12T14:54:50.604Z,66.41
2022-11-12T14:56:52.391Z,66.33
2022-11-12T14:58:54.975Z,66.63
2022-11-12T15:00:56.757Z,66.14
2022-11-12T15:03:00.113Z,66.39
2022-11-12T15:05:11.797Z,66.28
2022-11-12T15:07:58.810Z,66.15
2022-11-12T15:10:01.165Z,66.44
2022-11-12T15:12:05.421Z,65.75
2022-11-12T15:14:12.473Z,66.20
2022-11-12T15:16:27.402Z,65.34
2022-11-12T15:18:30.484Z,65.63
2022-11-12T15:20:32.190Z,65.40
2022-11-12T15:22:34.424Z,65.86
2022-11-12T15:24:37.749Z,65.34
2022-11-12T15:26:41.989Z,65.57
2022-11-12T15:29:01.392Z,65.76
2022-11-12T15:31:18.753Z,65.19
2022-11-12T15:33:23.498Z,65.42
2022-11-12T15:35:25.052Z,65.47
2022-11-12T15:37:28.672Z,65.90
2022-11-12T15:39:30.720Z,66.56
2022-11-12T15:41:34.193Z,66.89
2022-11-12T15:43:36.909Z,66.50
2022-11-12T15:45:38.557Z,66.83
2022-11-12T15:47:40.301Z,66.78
2022-11-12T15:50:13.875Z,67.16
2022-11-12T15:52:15.571Z,67.44
2022-11-12T15:54:17.194Z,68.39
2022-11-12T15:56:21.685Z,68.80
2022-11-12T15:58:33.120Z,68.27
2022-11-12T16:00:36.868Z,68.41
2022-11-12T16:02:38.442Z,67.63
2022-11-12T16:04:40.137Z,67.48
2022-11-12T16:06:41.924Z,67.23
2022-11-12T16:08:43.590Z,67.02
2022-11-12T16:10:46.553Z,66.92
2022-11-12T16:12:48.446Z,67.22
2022-11-12T16:14:50.137Z,67.14
2022-11-12T16:16:51.756Z,67.27
2022-11-12T16:18:53.417Z,67.21
2022-11-12T16:20:54.964Z,67.70
2022-11-12T16:22:56.770Z,67.37
2022-11-12T16:24:58.421Z,66.61
2022-11-12T16:27:01.353Z,67.22
2022-11-12T16:29:05.814Z,67.37
2022-11-12T16:31:07.582Z,65.82
2022-11-12T16:33:13.462Z,65.94
2022-11-12T16:35:16.433Z,66.11
2022-11-12T16:37:18.224Z,66.13
2022-11-12T16:39:20.898Z,66.06
2022-11-12T16:41:22.569Z,65.99
2022-11-12T16:43:24.346Z,66.36
2022-11-12T16:45:33.008Z,65.93
2022-11-12T16:47:38.384Z,65.43
2022-11-12T16:49:40.636Z,65.31
2022-11-12T16:51:42.446Z,65.30
2022-11-12T16:53:44.681Z,65.27
2022-11-12T16:55:46.342Z,65.53
2022-11-12T16:57:48.208Z,65.44
2022-11-12T16:59:49.833Z,64.95
2022-11-12T17:01:51.679Z,65.97
2022-11-12T17:03:54.577Z,64.74
2022-11-12T17:05:56.272Z,64.78
2022-11-12T17:07:58.198Z,65.47
2022-11-12T17:09:59.924Z,65.46
2022-11-12T17:12:01.548Z,66.12
2022-11-12T17:14:04.714Z,65.93
2022-11-12T17:16:07.767Z,66.49
2022-11-12T17:18:10.373Z,65.91
2022-11-12T17:20:12.081Z,65.98
2022-11-12T17:22:13.903Z,66.23
2022-11-12T17:24:15.775Z,66.47
2022-11-12T17:26:19.904Z,66.17
2022-11-12T17:28:21.664Z,66.49
2022-11-12T17:30:23.356Z,66.43
2022-11-12T17:32:24.999Z,66.32
2022-11-12T17:34:26.608Z,66.47
2022-11-12T17:36:28.766Z,66.03
2022-11-12T17:38:30.766Z,67.03
2022-11-12T17:40:32.407Z,66.88
2022-11-12T17:42:34.075Z,67.23
2022-11-12T17:44:35.683Z,67.17
2022-11-12T17:46:37.540Z,67.08
2022-11-12T17:48:39.200Z,66.75
2022-11-12T17:50:40.779Z,67.45
2022-11-12T17:52:42.419Z,67.31
2022-11-12T17:54:44.818Z,68.35
2022-11-12T17:56:46.437Z,68.91
2022-11-12T17:58:49.834Z,68.35
2022-11-12T18:00:51.975Z,68.97
2022-11-12T18:02:56.101Z,69.09
2022-11-12T18:04:57.723Z,69.44
2022-11-12T18:06:59.394Z,69.85
2022-11-12T18:09:05.003Z,70.34
2022-11-12T18:11:07.671Z,70.54
2022-11-12T18:13:09.351Z,70.29
2022-11-12T18:15:13.114Z,70.12
2022-11-12T18:17:14.794Z,70.30
2022-11-12T18:19:16.507Z,69.79
2022-11-12T18:21:18.155Z,69.87
2022-11-12T18:23:19.876Z,69.47
2022-11-12T18:25:21.479Z,70.22
2022-11-12T18:27:23.147Z,69.61
2022-11-12T18:29:24.893Z,69.76
2022-11-12T18:31:27.686Z,69.76
2022-11-12T18:33:30.406Z,70.52
2022-11-12T18:35:32.333Z,70.54
2022-11-12T18:37:34.423Z,70.92
2022-11-12T18:39:36.096Z,71.37
2022-11-12T18:41:37.738Z,70.96
2022-11-12T18:43:39.968Z,71.51
2022-11-12T18:45:41.574Z,71.74
2022-11-12T18:47:43.147Z,72.06
2022-11-12T18:49:44.799Z,71.92
2022-11-12T18:51:46.572Z,71.77
2022-11-12T18:53:48.277Z,71.33
2022-11-12T18:55:49.917Z,70.96
2022-11-12T18:57:51.551Z,70.72
2022-11-12T18:59:55.152Z,71.22
2022-11-12T19:01:58.126Z,70.92
2022-11-12T19:03:59.754Z,70.84
2022-11-12T19:06:03.190Z,70.81
2022-11-12T19:08:04.940Z,70.47
2022-11-12T19:10:14.608Z,70.77
2022-11-12T19:12:16.708Z,70.00
2022-11-12T19:14:18.287Z,70.27
2022-11-12T19:16:22.654Z,70.13
2022-11-12T19:18:24.620Z,69.84
2022-11-12T19:20:26.516Z,69.68
2022-11-12T19:22:28.071Z,68.96
2022-11-12T19:24:30.978Z,69.04
2022-11-12T19:26:32.696Z,69.04
2022-11-12T19:28:35.146Z,69.52
2022-11-12T19:30:36.820Z,70.10
2022-11-12T19:32:38.435Z,70.68
2022-11-12T19:34:40.032Z,70.62
2022-11-12T19:36:41.930Z,70.61
2022-11-12T19:38:43.770Z,70.04
2022-11-12T19:40:45.904Z,69.94
2022-11-12T19:42:48.410Z,70.65
2022-11-12T19:44:50.296Z,69.81
2022-11-12T19:46:52.030Z,69.37
2022-11-12T19:48:53.952Z,69.80
2022-11-12T19:50:56.842Z,70.29
2022-11-12T19:52:58.404Z,70.23
2022-11-12T19:55:01.131Z,70.65
2022-11-12T19:57:02.779Z,71.25
2022-11-12T19:59:04.435Z,71.03
2022-11-12T20:01:11.211Z,71.76
2022-11-12T20:03:12.829Z,71.48
2022-11-12T20:05:14.526Z,71.01
2022-11-12T20:07:16.330Z,70.94
2022-11-12T20:09:18.210Z,71.27
2022-11-12T20:11:20.158Z,71.02
2022-11-12T20:13:22.008Z,71.56
2022-11-12T20:15:23.657Z,70.88
2022-11-12T20:17:25.336Z,71.17
2022-11-12T20:19:27.885Z,70.94
2022-11-12T20:21:30.990Z,71.01
2022-11-12T20:23:33.985Z,70.60
2022-11-12T20:25:35.805Z,70.89
2022-11-12T20:27:37.536Z,70.81
2022-11-12T20:29:39.147Z,69.87
2022-11-12T20:31:42.061Z,70.23
2022-11-12T20:33:43.641Z,70.00
2022-11-12T20:35:45.506Z,70.20
2022-11-12T20:37:47.274Z,70.24
2022-11-12T20:39:48.931Z,69.58
2022-11-12T20:41:50.603Z,69.68
2022-11-12T20:43:57.786Z,70.28
2022-11-12T20:45:59.810Z,70.47
2022-11-12T20:48:01.428Z,70.16
2022-11-12T20:50:03.424Z,69.72
2022-11-12T20:52:05.041Z,69.94
2022-11-12T20:54:06.660Z,69.86
2022-11-12T20:56:13.355Z,69.77
2022-11-12T20:58:14.930Z,69.43
2022-11-12T21:00:22.933Z,69.80
2022-11-12T21:02:25.752Z,69.30
2022-11-12T21:04:27.804Z,69.05
2022-11-12T21:06:29.625Z,69.61
2022-11-12T21:08:32.275Z,69.78
2022-11-12T21:10:33.891Z,69.98
2022-11-12T21:12:35.904Z,70.02
2022-11-12T21:14:37.618Z,69.25
2022-11-12T21:16:39.211Z,69.98
2022-11-12T21:18:41.322Z,69.97
2022-11-12T21:20:43.270Z,70.67
2022-11-12T21:22:44.848Z,71.02
2022-11-12T21:24:46.548Z,70.88
2022-11-12T21:26:51.288Z,70.71
2022-11-12T21:28:54.441Z,71.07
2022-11-12T21:31:03.012Z,71.24
2022-11-12T21:33:04.848Z,71.84
2022-11-12T21:35:07.035Z,72.45
2022-11-12T21:37:09.015Z,71.50
2022-11-12T21:39:12.169Z,72.24
2022-11-12T21:41:19.218Z,71.77
2022-11-12T21:43:21.485Z,71.58
2022-11-12T21:45:23.190Z,71.81
2022-11-12T21:47:24.833Z,71.50
2022-11-12T21:49:26.431Z,71.17
2022-11-12T21:51:31.005Z,71.08
2022-11-12T21:53:33.125Z,71.39
2022-11-12T21:55:35.694Z,71.17
2022-11-12T21:57:37.350Z,70.98
2022-11-12T21:59:38.985Z,70.50
2022-11-12T22:01:40.732Z,70.95
2022-11-12T22:03:42.574Z,70.49
2022-11-12T22:05:44.183Z,71.10
2022-11-12T22:07:45.814Z,71.71
2022-11-12T22:09:49.431Z,71.96
2022-11-12T22:11:54.165Z,72.00
2022-11-12T22:13:55.894Z,72.52
2022-11-12T22:15:58.167Z,72.95
2022-11-12T22:17:59.770Z,72.68
2022-11-12T22:20:01.395Z,72.51
2022-11-12T22:22:03.023Z,72.32
2022-11-12T22:24:05.320Z,72.26
2022-11-12T22:26:10.143Z,72.50
2022-11-12T22:28:11.823Z,72.31
2022-11-12T22:30:13.554Z,72.65
2022-11-12T22:32:15.127Z,73.05
2022-11-12T22:34:16.718Z,72.62
2022-11-12T22:36:23.340Z,72.11
2022-11-12T22:38:25.101Z,71.99
2022-11-12T22:40:27.028Z,71.80
2022-11-12T22:42:28.918Z,72.29
2022-11-12T22:44:30.551Z,72.06
2022-11-12T22:46:34.241Z,71.99
2022-11-12T22:48:36.005Z,72.17
2022-11-12T22:50:37.624Z,71.60
2022-11-12T22:52:39.212Z,71.08
2022-11-12T22:54:41.069Z,71.62
2022-11-12T22:56:42.627Z,71.60
2022-11-12T22:58:46.049Z,71.51
2022-11-12T23:00:47.940Z,71.59
2022-11-12T23:02:49.516Z,71.69
2022-11-12T23:04:51.367Z,71.61
2022-11-12T23:06:53.001Z,71.69
2022-11-12T23:08:55.444Z,71.64
2022-11-12T23:10:57.705Z,71.26
2022-11-12T23:12:59.377Z,71.58
2022-11-12T23:15:00.952Z,72.17
2022-11-12T23:17:02.774Z,71.69
2022-11-12T23:19:04.459Z,71.67
2022-11-12T23:21:08.970Z,71.98
2022-11-12T23:23:10.602Z,72.57
2022-11-12T23:25:12.292Z,72.52
2022-11-12T23:27:13.886Z,72.16
2022-11-12T23:29:15.588Z,72.97
2022-11-12T23:31:26.306Z,72.97
2022-11-12T23:33:27.980Z,73.62
2022-11-12T23:35:30.200Z,73.64
2022-11-12T23:37:31.866Z,74.04
2022-11-12T23:39:33.460Z,74.43
2022-11-12T23:41:35.346Z,74.26
2022-11-12T23:43:37.035Z,74.42
2022-11-12T23:45:38.626Z,73.97
2022-11-12T23:47:40.332Z,73.73
2022-11-12T23:49:41.903Z,74.00
2022-11-12T23:51:43.487Z,73.12
2022-11-12T23:53:45.870Z,72.56
2022-11-12T23:55:47.424Z,72.40
2022-11-12T23:57:48.997Z,72.23
2022-11-12T23:59:50.869Z,72.00
